createdAt,value
2022-08-25T00:00:50.775Z,86.93
2022-08-25T00:03:26.723Z,87.01
2022-08-25T00:06:03.030Z,87.04
2022-08-25T00:08:42.139Z,87.14
2022-08-25T00:11:22.905Z,87.20
2022-08-25T00:14:06.076Z,87.20
2022-08-25T00:16:43.500Z,87.20
2022-08-25T00:19:23.838Z,87.20
2022-08-25T00:22:00.837Z,87.22
2022-08-25T00:24:38.224Z,87.20
2022-08-25T00:27:14.228Z,87.29
2022-08-25T00:29:50.672Z,87.37
2022-08-25T00:32:27.182Z,87.61
2022-08-25T00:35:03.869Z,87.73
2022-08-25T00:37:39.761Z,87.82
2022-08-25T00:40:17.094Z,87.94
2022-08-25T00:42:54.617Z,88.02
2022-08-25T00:45:31.685Z,88.14
2022-08-25T00:48:08.576Z,88.27
2022-08-25T00:50:44.538Z,88.37
2022-08-25T00:53:21.289Z,88.43
2022-08-25T00:55:57.906Z,88.50
2022-08-25T00:58:37.758Z,88.50
2022-08-25T01:01:15.192Z,88.50
2022-08-25T01:03:51.593Z,88.52
2022-08-25T01:06:28.577Z,88.53
2022-08-25T01:09:04.751Z,88.47
2022-08-25T01:11:41.621Z,88.42
2022-08-25T01:14:22.166Z,88.44
2022-08-25T01:16:59.430Z,88.40
2022-08-25T01:19:35.944Z,88.44
2022-08-25T01:22:12.609Z,88.40
2022-08-25T01:24:57.687Z,88.39
2022-08-25T01:27:33.796Z,88.40
2022-08-25T01:30:12.756Z,88.46
2022-08-25T01:32:49.518Z,88.50
2022-08-25T01:35:25.705Z,88.50
2022-08-25T01:38:02.785Z,88.49
2022-08-25T01:40:41.066Z,88.45
2022-08-25T01:43:39.335Z,88.47
2022-08-25T01:46:15.415Z,88.57
2022-08-25T01:48:51.761Z,88.62
2022-08-25T01:51:35.334Z,88.71
2022-08-25T01:54:11.723Z,88.71
2022-08-25T01:56:48.046Z,88.76
2022-08-25T01:59:25.562Z,88.73
2022-08-25T02:02:01.540Z,88.73
2022-08-25T02:04:44.307Z,88.77
2022-08-25T02:07:21.599Z,88.78
2022-08-25T02:09:58.771Z,88.78
2022-08-25T02:12:37.750Z,88.76
2022-08-25T02:15:15.656Z,88.76
2022-08-25T02:17:51.848Z,88.76
2022-08-25T02:20:29.026Z,88.80
2022-08-25T02:23:05.456Z,88.80
2022-08-25T02:25:42.986Z,88.79
2022-08-25T02:28:20.030Z,88.79
2022-08-25T02:31:01.226Z,88.77
2022-08-25T02:33:38.246Z,88.81
2022-08-25T02:36:14.876Z,88.82
2022-08-25T02:38:51.405Z,88.82
2022-08-25T02:41:31.622Z,88.83
2022-08-25T02:44:10.064Z,88.89
2022-08-25T02:46:46.002Z,88.90
2022-08-25T02:49:22.034Z,88.91
2022-08-25T02:51:59.346Z,88.90
2022-08-25T02:54:35.607Z,88.94
2022-08-25T02:57:13.589Z,88.99
2022-08-25T02:59:50.139Z,88.98
2022-08-25T03:02:26.523Z,88.92
2022-08-25T03:05:02.677Z,88.90
2022-08-25T03:07:39.890Z,88.86
2022-08-25T03:10:22.108Z,88.81
2022-08-25T03:12:58.108Z,88.82
2022-08-25T03:15:37.820Z,88.79
2022-08-25T03:18:14.247Z,88.86
2022-08-25T03:20:50.548Z,88.91
2022-08-25T03:23:27.100Z,88.87
2022-08-25T03:26:29.605Z,88.78
2022-08-25T03:29:07.234Z,88.70
2022-08-25T03:31:44.953Z,88.73
2022-08-25T03:34:23.927Z,88.70
2022-08-25T03:37:00.921Z,88.75
2022-08-25T03:39:37.118Z,88.83
2022-08-25T03:42:13.632Z,88.89
2022-08-25T03:44:49.569Z,88.87
2022-08-25T03:47:26.687Z,88.82
2022-08-25T03:50:02.682Z,88.90
2022-08-25T03:52:42.445Z,88.83
2022-08-25T03:55:19.649Z,88.80
2022-08-25T03:57:56.750Z,88.74
2022-08-25T04:00:32.792Z,88.82
2022-08-25T04:03:09.145Z,89.00
2022-08-25T04:05:46.125Z,89.09
2022-08-25T04:08:22.623Z,89.10
2022-08-25T04:10:58.649Z,89.12
2022-08-25T04:13:34.658Z,89.19
2022-08-25T04:16:19.030Z,89.16
2022-08-25T04:18:57.124Z,89.14
2022-08-25T04:21:34.961Z,89.11
2022-08-25T04:24:14.249Z,89.10
2022-08-25T04:26:53.840Z,89.04
2022-08-25T04:29:30.430Z,88.92
2022-08-25T04:32:07.144Z,88.84
2022-08-25T04:34:43.618Z,88.78
2022-08-25T04:37:19.950Z,88.60
2022-08-25T04:39:55.935Z,88.53
2022-08-25T04:42:32.283Z,88.16
2022-08-25T04:45:10.537Z,87.75
2022-08-25T04:47:46.610Z,87.20
2022-08-25T04:50:22.762Z,86.53
2022-08-25T04:52:59.250Z,86.33
2022-08-25T04:55:40.813Z,85.77
2022-08-25T04:58:16.697Z,85.18
2022-08-25T05:00:52.891Z,84.55
2022-08-25T05:03:28.974Z,83.57
2022-08-25T05:06:06.267Z,82.81
2022-08-25T05:08:42.515Z,82.19
2022-08-25T05:11:23.617Z,81.21
2022-08-25T05:14:03.091Z,79.96
2022-08-25T05:16:39.762Z,79.02
2022-08-25T05:19:16.157Z,77.92
2022-08-25T05:21:52.456Z,77.08
2022-08-25T05:24:29.726Z,76.16
2022-08-25T05:27:06.601Z,74.84
2022-08-25T05:29:42.664Z,73.72
2022-08-25T05:32:18.617Z,72.25
2022-08-25T05:34:54.885Z,72.13
2022-08-25T05:37:30.880Z,71.13
2022-08-25T05:40:09.408Z,70.41
2022-08-25T05:42:45.538Z,69.85
2022-08-25T05:45:22.508Z,69.16
2022-08-25T05:47:58.892Z,68.15
2022-08-25T05:50:34.827Z,67.58
2022-08-25T05:53:10.680Z,66.69
2022-08-25T05:55:50.773Z,65.14
2022-08-25T05:58:28.961Z,65.86
2022-08-25T06:01:19.558Z,64.33
2022-08-25T06:03:55.967Z,64.29
2022-08-25T06:06:32.346Z,63.95
2022-08-25T06:09:10.601Z,62.91
2022-08-25T06:11:46.751Z,62.49
2022-08-25T06:14:23.369Z,61.32
2022-08-25T06:17:00.505Z,61.15
2022-08-25T06:19:37.114Z,61.06
2022-08-25T06:22:15.992Z,60.10
2022-08-25T06:24:58.651Z,59.31
2022-08-25T06:27:35.424Z,58.36
2022-08-25T06:30:19.357Z,57.50
2022-08-25T06:33:00.450Z,57.36
2022-08-25T06:35:37.105Z,56.64
2022-08-25T06:38:15.075Z,56.14
2022-08-25T06:40:53.749Z,55.28
2022-08-25T06:43:29.683Z,55.93
2022-08-25T06:46:15.819Z,54.81
2022-08-25T06:48:52.631Z,54.62
2022-08-25T06:51:30.152Z,54.45
2022-08-25T06:54:08.107Z,54.46
2022-08-25T06:56:46.694Z,54.36
2022-08-25T06:59:25.712Z,53.81
2022-08-25T07:02:11.805Z,53.52
2022-08-25T07:04:48.197Z,53.20
2022-08-25T07:07:24.152Z,53.10
2022-08-25T07:10:00.207Z,53.25
2022-08-25T07:12:36.226Z,52.66
2022-08-25T07:15:20.459Z,52.01
2022-08-25T07:17:58.951Z,51.69
2022-08-25T07:20:36.938Z,51.36
2022-08-25T07:23:13.015Z,50.86
2022-08-25T07:25:49.912Z,51.66
2022-08-25T07:28:26.896Z,51.30
2022-08-25T07:31:02.927Z,50.69
2022-08-25T07:34:01.548Z,50.68
2022-08-25T07:36:38.252Z,51.04
2022-08-25T07:39:17.636Z,51.22
2022-08-25T07:41:59.043Z,50.89
2022-08-25T07:44:35.252Z,52.18
2022-08-25T07:47:11.399Z,52.35
2022-08-25T07:49:47.265Z,52.49
2022-08-25T07:52:23.436Z,54.05
2022-08-25T07:54:59.682Z,55.11
2022-08-25T07:57:36.684Z,54.99
2022-08-25T08:00:17.862Z,55.37
2022-08-25T08:02:55.065Z,56.00
2022-08-25T08:05:32.026Z,56.71
2022-08-25T08:08:08.281Z,56.77
2022-08-25T08:13:42.597Z,57.74
2022-08-25T08:16:21.699Z,58.00
2022-08-25T08:18:58.948Z,57.55
2022-08-25T08:21:37.953Z,56.41
2022-08-25T08:24:25.085Z,55.66
2022-08-25T08:27:08.591Z,55.77
2022-08-25T08:29:46.014Z,55.15
2022-08-25T08:32:25.186Z,55.13
2022-08-25T08:35:15.578Z,55.28
2022-08-25T08:37:52.551Z,55.29
2022-08-25T08:40:32.393Z,55.17
2022-08-25T08:43:20.885Z,55.32
2022-08-25T08:45:57.313Z,54.91
2022-08-25T08:48:53.331Z,53.94
2022-08-25T08:51:40.456Z,54.81
2022-08-25T08:54:25.247Z,54.74
2022-08-25T08:57:15.498Z,54.73
2022-08-25T09:00:01.252Z,54.09
2022-08-25T09:02:51.649Z,54.53
2022-08-25T09:05:35.789Z,54.99
2022-08-25T09:08:20.176Z,55.03
2022-08-25T09:11:10.479Z,56.00
2022-08-25T09:14:13.210Z,55.10
2022-08-25T09:17:06.187Z,55.08
2022-08-25T09:20:22.297Z,55.95
2022-08-25T09:23:20.611Z,56.48
2022-08-25T09:26:20.149Z,57.40
2022-08-25T09:29:06.459Z,58.78
2022-08-25T09:31:55.405Z,57.39
2022-08-25T09:34:36.907Z,58.38
2022-08-25T09:37:12.973Z,58.07
2022-08-25T09:39:49.840Z,58.59
2022-08-25T09:42:50.251Z,58.83
2022-08-25T09:45:43.754Z,58.75
2022-08-25T09:48:40.843Z,58.70
2022-08-25T09:51:27.738Z,58.29
2022-08-25T09:54:10.567Z,58.48
2022-08-25T09:56:57.723Z,59.49
2022-08-25T09:59:37.837Z,59.27
2022-08-25T10:02:31.204Z,59.52
2022-08-25T10:05:25.134Z,60.19
2022-08-25T10:08:14.647Z,61.12
2022-08-25T10:10:57.546Z,59.56
2022-08-25T10:13:46.856Z,59.46
2022-08-25T10:16:36.486Z,59.92
2022-08-25T10:19:24.695Z,59.48
2022-08-25T10:22:27.373Z,59.52
2022-08-25T10:25:05.054Z,59.48
2022-08-25T10:27:53.853Z,59.57
2022-08-25T10:30:46.460Z,58.83
2022-08-25T10:33:40.455Z,59.25
2022-08-25T10:36:30.241Z,60.21
2022-08-25T10:39:34.649Z,60.62
2022-08-25T10:42:25.973Z,59.67
2022-08-25T10:45:41.655Z,59.13
2022-08-25T10:48:53.808Z,58.93
2022-08-25T10:51:57.633Z,58.58
2022-08-25T10:54:51.340Z,58.75
2022-08-25T10:57:52.818Z,58.46
2022-08-25T11:00:38.362Z,58.85
2022-08-25T11:03:44.667Z,59.61
2022-08-25T11:06:29.531Z,59.52
2022-08-25T11:09:14.157Z,59.79
2022-08-25T11:11:57.746Z,58.58
2022-08-25T11:14:41.664Z,59.18
2022-08-25T11:17:25.410Z,59.53
2022-08-25T11:20:16.341Z,59.35
2022-08-25T11:23:18.609Z,59.26
2022-08-25T11:26:01.889Z,58.70
2022-08-25T11:28:53.759Z,57.81
2022-08-25T11:31:31.044Z,58.02
2022-08-25T11:34:09.920Z,58.62
2022-08-25T11:36:54.066Z,58.42
2022-08-25T11:39:59.369Z,59.43
2022-08-25T11:42:55.962Z,59.32
2022-08-25T11:46:12.802Z,58.92
2022-08-25T11:49:13.547Z,58.54
2022-08-25T11:51:53.722Z,58.68
2022-08-25T11:54:36.724Z,59.01
2022-08-25T11:57:26.412Z,58.65
2022-08-25T12:00:36.410Z,57.97
2022-08-25T12:03:53.568Z,57.37
2022-08-25T12:06:36.933Z,57.63
2022-08-25T12:09:26.756Z,56.60
2022-08-25T12:12:32.886Z,56.75
2022-08-25T12:15:27.250Z,57.14
2022-08-25T12:18:45.958Z,56.73
2022-08-25T12:21:38.525Z,57.26
2022-08-25T12:24:25.796Z,56.37
2022-08-25T12:27:09.578Z,56.51
2022-08-25T12:29:51.832Z,56.84
2022-08-25T12:33:02.997Z,57.03
2022-08-25T12:35:57.048Z,56.76
2022-08-25T12:38:50.891Z,57.13
2022-08-25T12:41:33.730Z,56.83
2022-08-25T12:44:41.551Z,55.67
2022-08-25T12:47:34.044Z,55.70
2022-08-25T12:50:40.410Z,56.19
2022-08-25T12:53:31.851Z,55.40
2022-08-25T12:56:20.004Z,55.54
2022-08-25T12:59:18.338Z,54.74
2022-08-25T13:02:39.977Z,54.93
2022-08-25T13:06:14.061Z,53.78
2022-08-25T13:09:34.595Z,54.27
2022-08-25T13:12:23.507Z,54.09
2022-08-25T13:15:01.508Z,54.31
2022-08-25T13:17:39.765Z,54.54
2022-08-25T13:20:29.259Z,53.52
2022-08-25T13:23:05.624Z,53.33
2022-08-25T13:25:52.135Z,53.56
2022-08-25T13:28:34.827Z,52.57
2022-08-25T13:31:22.282Z,52.80
2022-08-25T13:34:03.042Z,52.26
2022-08-25T13:37:06.561Z,52.93
2022-08-25T13:39:56.484Z,53.19
2022-08-25T13:42:36.583Z,53.18
2022-08-25T13:45:19.766Z,53.48
2022-08-25T13:47:58.104Z,52.95
2022-08-25T13:50:41.153Z,52.07
2022-08-25T13:53:30.384Z,51.56
2022-08-25T13:56:08.855Z,52.20
2022-08-25T13:58:48.298Z,51.73
2022-08-25T14:01:48.043Z,51.67
2022-08-25T14:04:50.740Z,51.34
2022-08-25T14:07:35.398Z,51.55
2022-08-25T14:10:35.372Z,51.56
2022-08-25T14:13:32.049Z,51.81
2022-08-25T14:16:23.308Z,52.32
2022-08-25T14:19:04.533Z,51.33
2022-08-25T14:21:42.127Z,52.36
2022-08-25T14:24:24.396Z,51.99
2022-08-25T14:27:00.624Z,52.42
2022-08-25T14:29:41.095Z,52.13
2022-08-25T14:32:19.180Z,52.13
2022-08-25T14:34:55.346Z,51.31
2022-08-25T14:37:32.522Z,51.38
2022-08-25T14:40:14.139Z,51.29
2022-08-25T14:42:51.317Z,50.86
2022-08-25T14:45:27.757Z,51.02
2022-08-25T14:48:11.782Z,50.67
2022-08-25T14:50:49.218Z,51.14
2022-08-25T14:53:27.890Z,51.30
2022-08-25T14:56:09.185Z,51.05
2022-08-25T14:58:50.904Z,50.95
2022-08-25T15:01:30.089Z,50.83
2022-08-25T15:04:15.667Z,50.49
2022-08-25T15:06:57.695Z,51.08
2022-08-25T15:09:34.189Z,51.58
2022-08-25T15:12:12.559Z,51.98
2022-08-25T15:14:53.804Z,52.37
2022-08-25T15:17:30.290Z,52.87
2022-08-25T15:20:08.763Z,53.05
2022-08-25T15:22:48.263Z,52.68
2022-08-25T15:25:24.710Z,53.01
2022-08-25T15:28:01.185Z,52.72
2022-08-25T15:30:37.857Z,52.67
2022-08-25T15:33:14.319Z,53.07
2022-08-25T15:35:50.200Z,53.29
2022-08-25T15:38:27.806Z,53.61
2022-08-25T15:41:05.189Z,53.43
2022-08-25T15:43:43.350Z,53.47
2022-08-25T15:46:23.929Z,53.44
2022-08-25T15:49:00.623Z,53.50
2022-08-25T15:51:37.277Z,52.95
2022-08-25T15:54:14.457Z,52.81
2022-08-25T15:56:50.743Z,53.20
2022-08-25T15:59:28.209Z,53.30
2022-08-25T16:02:04.696Z,53.69
2022-08-25T16:04:53.275Z,52.94
2022-08-25T16:07:29.539Z,52.58
2022-08-25T16:10:07.484Z,52.54
2022-08-25T16:12:43.752Z,52.93
2022-08-25T16:15:23.936Z,53.03
2022-08-25T16:18:01.447Z,53.36
2022-08-25T16:20:46.693Z,53.62
2022-08-25T16:23:25.604Z,53.87
2022-08-25T16:26:04.669Z,54.15
2022-08-25T16:28:43.931Z,54.49
2022-08-25T16:31:22.231Z,54.74
2022-08-25T16:33:59.245Z,55.04
2022-08-25T16:36:35.714Z,55.29
2022-08-25T16:39:12.531Z,55.49
2022-08-25T16:41:51.309Z,55.70
2022-08-25T16:44:27.494Z,56.43
2022-08-25T16:47:04.406Z,56.86
2022-08-25T16:49:45.414Z,57.28
2022-08-25T16:52:39.035Z,58.20
2022-08-25T16:55:17.141Z,58.82
2022-08-25T16:57:59.992Z,59.14
2022-08-25T17:00:38.903Z,59.32
2022-08-25T17:03:15.938Z,59.80
2022-08-25T17:05:52.097Z,60.15
2022-08-25T17:08:31.120Z,60.67
2022-08-25T17:11:15.091Z,61.10
2022-08-25T17:13:55.753Z,61.34
2022-08-25T17:16:35.973Z,61.55
2022-08-25T17:19:15.170Z,61.74
2022-08-25T17:21:51.392Z,61.77
2022-08-25T17:24:29.326Z,62.16
2022-08-25T17:27:08.178Z,62.70
2022-08-25T17:29:44.161Z,62.85
2022-08-25T17:32:20.207Z,63.89
2022-08-25T17:34:56.153Z,64.55
2022-08-25T17:37:32.159Z,64.69
2022-08-25T17:40:11.041Z,64.47
2022-08-25T17:42:47.068Z,65.17
2022-08-25T17:45:23.371Z,65.74
2022-08-25T17:48:00.401Z,66.00
2022-08-25T17:50:37.271Z,67.37
2022-08-25T17:53:17.350Z,68.10
2022-08-25T17:56:02.823Z,68.31
2022-08-25T17:58:39.613Z,69.28
2022-08-25T18:01:46.365Z,69.75
2022-08-25T18:04:23.888Z,70.09
2022-08-25T18:07:03.656Z,70.05
2022-08-25T18:09:40.032Z,69.97
2022-08-25T18:12:17.706Z,69.73
2022-08-25T18:14:56.926Z,69.70
2022-08-25T18:17:35.744Z,70.04
2022-08-25T18:20:16.373Z,70.54
2022-08-25T18:22:55.181Z,71.54
2022-08-25T18:25:35.316Z,71.98
2022-08-25T18:28:12.072Z,72.10
2022-08-25T18:30:48.478Z,71.98
2022-08-25T18:33:25.793Z,71.77
2022-08-25T18:36:07.237Z,72.13
2022-08-25T18:39:01.526Z,71.23
2022-08-25T18:41:45.034Z,70.89
2022-08-25T18:44:21.798Z,70.52
2022-08-25T18:46:58.624Z,69.84
2022-08-25T18:49:35.196Z,69.94
2022-08-25T18:52:11.816Z,69.68
2022-08-25T18:54:48.126Z,69.63
2022-08-25T18:57:24.567Z,69.91
2022-08-25T19:00:02.260Z,70.84
2022-08-25T19:02:38.777Z,70.93
2022-08-25T19:05:26.998Z,72.01
2022-08-25T19:08:05.947Z,71.95
2022-08-25T19:10:44.069Z,72.09
2022-08-25T19:13:22.542Z,71.95
2022-08-25T19:15:59.599Z,71.87
2022-08-25T19:18:39.135Z,72.67
2022-08-25T19:21:15.817Z,72.80
2022-08-25T19:23:53.254Z,72.14
2022-08-25T19:26:30.687Z,72.48
2022-08-25T19:29:10.692Z,72.83
2022-08-25T19:31:50.540Z,72.80
2022-08-25T19:34:35.087Z,73.05
2022-08-25T19:37:13.290Z,73.29
2022-08-25T19:39:54.040Z,73.30
2022-08-25T19:42:37.110Z,73.67
2022-08-25T19:45:16.450Z,73.60
2022-08-25T19:47:54.349Z,73.74
2022-08-25T19:50:32.880Z,73.24
2022-08-25T19:53:10.244Z,73.04
2022-08-25T19:55:49.527Z,72.32
2022-08-25T19:58:25.830Z,71.55
2022-08-25T20:01:02.180Z,70.99
2022-08-25T20:03:39.878Z,70.89
2022-08-25T20:06:16.328Z,70.60
2022-08-25T20:08:58.984Z,71.11
2022-08-25T20:11:38.061Z,71.45
2022-08-25T20:14:15.537Z,71.96
2022-08-25T20:16:51.694Z,72.79
2022-08-25T20:19:27.999Z,73.05
2022-08-25T20:22:04.142Z,73.46
2022-08-25T20:24:55.876Z,73.32
2022-08-25T20:27:39.992Z,73.12
2022-08-25T20:30:22.212Z,73.48
2022-08-25T20:33:01.357Z,73.72
2022-08-25T20:35:38.136Z,73.82
2022-08-25T20:38:15.079Z,73.66
2022-08-25T20:40:51.532Z,73.71
2022-08-25T20:43:29.665Z,73.81
2022-08-25T20:46:09.053Z,74.05
2022-08-25T20:48:45.671Z,73.52
2022-08-25T20:51:23.473Z,73.65
2022-08-25T20:53:59.858Z,74.54
2022-08-25T20:56:36.212Z,75.17
2022-08-25T20:59:12.927Z,74.87
2022-08-25T21:01:49.746Z,74.47
2022-08-25T21:04:30.407Z,73.96
2022-08-25T21:07:07.677Z,73.54
2022-08-25T21:09:45.788Z,73.73
2022-08-25T21:12:22.371Z,74.41
2022-08-25T21:14:58.530Z,74.77
2022-08-25T21:17:34.890Z,74.76
2022-08-25T21:20:13.366Z,74.90
2022-08-25T21:22:49.301Z,75.07
2022-08-25T21:25:26.661Z,75.32
2022-08-25T21:28:02.688Z,75.72
2022-08-25T21:30:44.703Z,75.91
2022-08-25T21:33:26.393Z,76.27
2022-08-25T21:36:05.599Z,76.27
2022-08-25T21:38:42.306Z,76.08
2022-08-25T21:41:23.579Z,75.73
2022-08-25T21:44:01.447Z,75.81
2022-08-25T21:46:39.705Z,76.13
2022-08-25T21:49:16.244Z,76.36
2022-08-25T21:52:02.381Z,76.42
2022-08-25T21:54:40.623Z,77.02
2022-08-25T21:57:19.168Z,77.31
2022-08-25T21:59:59.953Z,77.59
2022-08-25T22:02:37.045Z,77.44
2022-08-25T22:05:15.440Z,77.23
2022-08-25T22:07:54.190Z,77.52
2022-08-25T22:10:30.547Z,77.57
2022-08-25T22:13:06.875Z,77.29
2022-08-25T22:15:42.840Z,77.21
2022-08-25T22:18:18.670Z,77.25
2022-08-25T22:20:55.203Z,77.63
2022-08-25T22:23:32.307Z,77.69
2022-08-25T22:26:17.162Z,77.96
2022-08-25T22:28:59.360Z,78.28
2022-08-25T22:31:37.129Z,78.63
2022-08-25T22:34:13.965Z,78.56
2022-08-25T22:36:50.862Z,78.29
2022-08-25T22:39:36.489Z,77.86
2022-08-25T22:42:16.265Z,77.85
2022-08-25T22:44:54.080Z,77.78
2022-08-25T22:47:29.987Z,77.65
2022-08-25T22:50:07.307Z,77.61
2022-08-25T22:52:43.214Z,77.39
2022-08-25T22:55:22.318Z,77.42
2022-08-25T22:57:58.628Z,77.37
2022-08-25T23:00:34.774Z,77.79
2022-08-25T23:03:11.936Z,78.05
2022-08-25T23:05:48.267Z,78.13
2022-08-25T23:08:38.873Z,77.94
2022-08-25T23:11:18.243Z,77.89
2022-08-25T23:13:57.074Z,78.10
2022-08-25T23:16:34.062Z,78.19
2022-08-25T23:19:13.770Z,78.30
2022-08-25T23:22:07.573Z,78.50
2022-08-25T23:24:48.626Z,78.88
2022-08-25T23:27:25.823Z,78.96
2022-08-25T23:30:01.835Z,78.08
2022-08-25T23:32:37.899Z,77.67
2022-08-25T23:35:14.967Z,77.69
2022-08-25T23:37:51.499Z,77.51
2022-08-25T23:40:28.663Z,77.73
2022-08-25T23:43:04.914Z,77.73
2022-08-25T23:45:41.215Z,77.95
2022-08-25T23:48:18.809Z,78.33
2022-08-25T23:50:55.022Z,78.39
2022-08-25T23:53:31.821Z,78.31
2022-08-25T23:56:08.864Z,78.77
2022-08-25T23:58:45.536Z,79.12
